Delta Virtual Airport Information Service

Delhi Indira Gandhi International Airport

ICAO: VIDP Country: India
Latitude: 28.5665 Longitude: 77.1031
Latest Arrival : DAC789 (VABB-VIDP) Latest Departure : DLH763 (VIDP-EDDM)


WX CaptureLIVE
Data provided by noaa.gov | Fetched at 15:25:37

METAR : VIDP 292000Z 24004KT 3000 HZ NSC 26/21 Q1005 NOSIG

TAF : VIDP 291700Z 2918/3024 25005KT 2500 HZ BR NSC BECMG 3000/3002 1800 BR BECMG 3004/3006 31008KT 3500 HZ BECMG 3007/3009 5000 HZ FEW100 BECMG 3017/3019 VRB02KT 3000 HZ BR NSC


Runway Data for VIDP
Data provided by openaviationdata.com

Runway ID Mag Var Hdg Length Elevation Surface ILS Freq ILS Id ILS Slope
9 0 91° 9250 ft 777 ft Asphalt 108.5 IDIA 3
10 0 104° 12040 ft 777 ft Asphalt 109.5 DEL 3
11 0 103° 14500 ft 777 ft Asphalt 111.3 IDMR 3
27 0 271° 9250 ft 777 ft Asphalt 110.5 DLH 3
28 0 284° 12040 ft 777 ft Asphalt 110.3 PLM 3
29 0 283° 14500 ft 777 ft Asphalt 110.9 IDGM 3

Delhi Indira Gandhi International Airport, India
Use only for reference purposes



Not for navigational purposes.